Time;durP1;ratioP1;P1;durP2;ratioP2;P2;SDS_P1;SDS_P2;PMS_P1;PMS_P2;Temp;Humidity;BMP_temperature;BMP_pressure;BME280_temperature;BME280_humidity;BME280_pressure;Samples;Min_cycle;Max_cycle;Signal;HPM_P1;HPM_P2
2022/03/04 00:00:50;;;;;;;13.52;7.80;;;-0.70;90.00;;;;;;5077469;28;20041;-78
2022/03/04 00:03:16;;;;;;;17.55;7.80;;;-0.70;90.10;;;;;;5077790;28;20024;-77
2022/03/04 00:05:42;;;;;;;16.83;7.88;;;-0.70;90.40;;;;;;5059112;28;20377;-78
2022/03/04 00:08:08;;;;;;;12.57;6.93;;;-0.80;90.50;;;;;;5077404;28;20024;-78
2022/03/04 00:10:35;;;;;;;13.75;7.22;;;-0.70;90.60;;;;;;5076968;28;20468;-77
2022/03/04 00:13:01;;;;;;;16.40;7.97;;;-0.80;90.70;;;;;;5063406;28;20025;-78
2022/03/04 00:15:27;;;;;;;14.80;7.72;;;-0.80;90.90;;;;;;5076953;28;20031;-78
2022/03/04 00:17:53;;;;;;;13.38;6.68;;;-0.70;90.90;;;;;;5077321;28;20039;-78
2022/03/04 00:20:18;;;;;;;12.95;7.15;;;-0.70;90.80;;;;;;5077796;28;20032;-78
2022/03/04 00:22:44;;;;;;;14.40;7.70;;;-0.70;90.80;;;;;;5077820;28;20078;-78
2022/03/04 00:25:10;;;;;;;14.32;7.65;;;-0.70;90.80;;;;;;5076756;28;20024;-78
2022/03/04 00:27:36;;;;;;;13.07;6.53;;;-0.70;90.90;;;;;;5077609;28;20464;-78
2022/03/04 00:30:03;;;;;;;13.23;6.47;;;-0.80;91.00;;;;;;5077109;28;20021;-78
2022/03/04 00:32:28;;;;;;;13.70;7.45;;;-0.80;91.00;;;;;;5058046;28;20037;-78
2022/03/04 00:34:54;;;;;;;14.82;7.55;;;-0.80;91.00;;;;;;5065274;28;21644;-78
2022/03/04 00:37:20;;;;;;;12.52;7.32;;;-0.80;91.00;;;;;;5077064;28;20024;-78
2022/03/04 00:39:46;;;;;;;17.40;7.72;;;-0.80;91.10;;;;;;5076918;28;20032;-78
2022/03/04 00:42:11;;;;;;;12.50;7.85;;;-0.80;91.00;;;;;;5077223;28;20097;-78
2022/03/04 00:44:37;;;;;;;15.38;7.03;;;-0.90;90.70;;;;;;5058933;28;20032;-78
2022/03/04 00:47:05;;;;;;;15.40;7.78;;;-1.00;90.70;;;;;;5076472;28;20032;-78
2022/03/04 00:49:31;;;;;;;14.00;7.72;;;-1.00;90.90;;;;;;5077286;28;20099;-78
2022/03/04 00:51:56;;;;;;;13.90;7.65;;;-1.10;91.20;;;;;;5076240;28;20060;-77
2022/03/04 00:54:22;;;;;;;14.80;7.75;;;-1.20;91.40;;;;;;5075537;28;20056;-77
2022/03/04 00:56:48;;;;;;;16.42;7.95;;;-1.20;91.60;;;;;;5074922;28;20477;-78
2022/03/04 00:59:14;;;;;;;14.60;7.10;;;-1.30;91.70;;;;;;5074629;28;20035;-77
2022/03/04 01:01:40;;;;;;;15.55;7.53;;;-1.30;91.80;;;;;;5075152;28;20598;-77
2022/03/04 01:04:06;;;;;;;17.10;8.45;;;-1.30;91.90;;;;;;5075198;28;20488;-77
2022/03/04 01:06:31;;;;;;;15.27;7.93;;;-1.40;92.10;;;;;;5075569;28;20032;-77
2022/03/04 01:08:57;;;;;;;15.80;8.40;;;-1.40;92.30;;;;;;5075514;28;20104;-77
2022/03/04 01:11:23;;;;;;;14.10;7.80;;;-1.40;92.50;;;;;;5075570;28;20052;-77
2022/03/04 01:13:49;;;;;;;16.05;7.95;;;-1.50;93.00;;;;;;5074871;28;20021;-77
2022/03/04 01:16:14;;;;;;;15.85;8.10;;;-1.70;93.30;;;;;;5056968;28;20029;-77
2022/03/04 01:18:40;;;;;;;13.93;8.18;;;-1.90;94.00;;;;;;5074650;28;20027;-77
2022/03/04 01:21:06;;;;;;;15.65;7.45;;;-1.90;94.50;;;;;;5074554;28;20064;-76
2022/03/04 01:23:32;;;;;;;13.90;7.40;;;-2.00;94.80;;;;;;5074428;28;20055;-77
2022/03/04 01:25:57;;;;;;;13.65;7.07;;;-2.00;95.10;;;;;;5056459;28;20025;-77
2022/03/04 01:28:23;;;;;;;13.45;7.03;;;-1.90;95.00;;;;;;5073875;28;20029;-77
2022/03/04 01:30:49;;;;;;;13.35;6.97;;;-1.90;94.70;;;;;;5056252;28;20028;-77
2022/03/04 01:33:15;;;;;;;16.30;7.53;;;-1.90;94.40;;;;;;5073973;28;20016;-77
2022/03/04 01:35:41;;;;;;;21.88;10.73;;;-1.80;94.20;;;;;;5074260;28;20037;-77
2022/03/04 01:38:07;;;;;;;17.02;8.27;;;-1.80;94.40;;;;;;5074601;28;20404;-77
2022/03/04 01:40:33;;;;;;;14.55;7.93;;;-1.80;94.20;;;;;;5073634;28;20028;-77
2022/03/04 01:42:59;;;;;;;15.13;7.78;;;-1.90;94.00;;;;;;5073807;28;20036;-77
2022/03/04 01:45:25;;;;;;;20.90;8.50;;;-2.00;93.70;;;;;;5071972;28;20027;-77
2022/03/04 01:47:51;;;;;;;15.75;7.18;;;-2.00;93.60;;;;;;5060941;28;20024;-77
2022/03/04 01:50:17;;;;;;;14.50;7.43;;;-2.10;93.40;;;;;;5055647;28;20024;-76
2022/03/04 01:52:43;;;;;;;13.88;7.30;;;-2.10;93.30;;;;;;5056133;28;20035;-77
2022/03/04 01:55:09;;;;;;;17.98;8.50;;;-2.20;93.30;;;;;;5073779;28;20570;-77
2022/03/04 01:57:36;;;;;;;14.80;8.25;;;-2.20;93.40;;;;;;5073920;28;20035;-77
2022/03/04 02:00:03;;;;;;;15.32;8.25;;;-2.30;93.70;;;;;;5074321;28;20060;-77
2022/03/04 02:02:29;;;;;;;15.52;7.82;;;-2.30;93.90;;;;;;5073920;28;20472;-77
2022/03/04 02:04:55;;;;;;;14.90;8.15;;;-2.30;94.20;;;;;;5073824;28;20031;-77
2022/03/04 02:07:21;;;;;;;15.52;7.82;;;-2.30;94.30;;;;;;5073901;28;20027;-77
2022/03/04 02:09:47;;;;;;;16.40;8.50;;;-2.30;94.30;;;;;;5073359;28;20021;-77
2022/03/04 02:12:13;;;;;;;13.52;7.28;;;-2.30;94.40;;;;;;5074243;28;20066;-77
2022/03/04 02:14:39;;;;;;;15.82;8.27;;;-2.20;94.40;;;;;;5073534;28;20024;-77
2022/03/04 02:17:05;;;;;;;16.20;7.75;;;-2.30;94.40;;;;;;5055662;28;20028;-77
2022/03/04 02:19:31;;;;;;;13.15;7.03;;;-2.20;94.50;;;;;;5055596;28;20036;-77
2022/03/04 02:22:00;;;;;;;11.52;6.65;;;-2.30;94.70;;;;;;5072885;28;20029;-77
2022/03/04 02:24:27;;;;;;;14.85;7.15;;;-2.30;94.70;;;;;;5073975;28;20533;-77
2022/03/04 02:26:54;;;;;;;13.30;6.60;;;-2.30;94.60;;;;;;5073044;28;20463;-78
2022/03/04 02:29:20;;;;;;;13.13;7.25;;;-2.30;94.60;;;;;;5073198;28;20038;-78
2022/03/04 02:31:46;;;;;;;15.30;7.57;;;-2.30;94.70;;;;;;5073598;28;20392;-78
2022/03/04 02:34:12;;;;;;;16.92;8.85;;;-2.30;94.90;;;;;;5072650;28;20471;-78
2022/03/04 02:36:38;;;;;;;15.88;7.45;;;-2.30;95.20;;;;;;5073138;28;20048;-79
2022/03/04 02:39:06;;;;;;;18.33;8.90;;;-2.30;95.60;;;;;;5055574;28;20028;-78
2022/03/04 02:41:35;;;;;;;14.18;7.40;;;-2.40;95.60;;;;;;5072831;28;20025;-78
2022/03/04 02:44:05;;;;;;;15.48;6.97;;;-2.50;95.10;;;;;;5073211;28;20472;-78
2022/03/04 02:46:32;;;;;;;18.52;7.88;;;-2.60;94.90;;;;;;5073214;28;20028;-78
2022/03/04 02:48:57;;;;;;;15.05;8.18;;;-2.60;95.00;;;;;;5055260;28;20035;-78
2022/03/04 02:51:23;;;;;;;17.80;7.85;;;-2.70;95.30;;;;;;5070752;28;20472;-77
2022/03/04 02:53:49;;;;;;;15.00;7.38;;;-2.80;95.40;;;;;;5056780;28;20052;-77
2022/03/04 02:56:15;;;;;;;16.92;8.07;;;-2.80;95.40;;;;;;5073292;28;20024;-78
2022/03/04 02:58:40;;;;;;;14.52;7.25;;;-2.80;95.50;;;;;;5072721;28;20032;-77
2022/03/04 03:01:06;;;;;;;13.90;7.72;;;-2.80;95.60;;;;;;5072510;28;20032;-78
2022/03/04 03:03:32;;;;;;;17.17;7.53;;;-2.80;95.70;;;;;;5055129;28;20039;-78
2022/03/04 03:05:58;;;;;;;15.32;7.50;;;-2.90;95.90;;;;;;5073305;28;20477;-78
2022/03/04 03:08:24;;;;;;;17.00;7.65;;;-2.90;96.00;;;;;;5072678;28;20095;-78
2022/03/04 03:10:49;;;;;;;15.80;7.88;;;-2.80;96.10;;;;;;5072621;28;20032;-78
2022/03/04 03:13:15;;;;;;;15.73;8.40;;;-2.80;96.30;;;;;;5073158;28;20036;-77
2022/03/04 03:15:41;;;;;;;17.75;8.95;;;-2.90;96.30;;;;;;5073086;28;20025;-77
2022/03/04 03:18:06;;;;;;;17.88;8.93;;;-2.90;96.30;;;;;;5073032;28;20025;-78
2022/03/04 03:20:33;;;;;;;18.10;9.57;;;-2.90;96.30;;;;;;5054856;28;20082;-78
2022/03/04 03:22:59;;;;;;;16.58;9.27;;;-2.90;96.20;;;;;;5055085;28;20028;-77
2022/03/04 03:25:24;;;;;;;18.02;9.52;;;-2.90;96.20;;;;;;5072687;28;20017;-78
2022/03/04 03:27:50;;;;;;;17.60;9.68;;;-2.90;96.20;;;;;;5072471;28;20538;-77
2022/03/04 03:30:16;;;;;;;15.80;8.38;;;-2.90;96.10;;;;;;5072552;28;20120;-77
2022/03/04 03:32:41;;;;;;;16.73;7.60;;;-2.90;96.20;;;;;;5073238;28;20035;-77
2022/03/04 03:35:08;;;;;;;14.82;8.25;;;-3.00;96.30;;;;;;5055048;28;20499;-77
2022/03/04 03:37:36;;;;;;;17.60;8.15;;;-3.00;96.40;;;;;;5072947;28;20064;-78
2022/03/04 03:40:07;;;;;;;15.95;8.07;;;-3.00;96.40;;;;;;5072479;28;20040;-77
2022/03/04 03:42:33;;;;;;;;;;;-3.10;96.70;;;;;;5073218;28;20029;-78
2022/03/04 03:44:58;;;;;;;13.82;7.20;;;-3.10;96.80;;;;;;5073007;28;19908;-77
2022/03/04 03:47:24;;;;;;;13.65;7.47;;;-3.20;96.60;;;;;;5073767;28;20158;-77
2022/03/04 03:49:50;;;;;;;15.30;7.63;;;-3.20;96.20;;;;;;5073122;28;20081;-76
2022/03/04 03:52:16;;;;;;;14.63;7.28;;;-3.20;96.10;;;;;;5055027;28;20115;-76
2022/03/04 03:54:41;;;;;;;13.02;6.28;;;-3.30;96.20;;;;;;5054722;28;20388;-77
2022/03/04 03:57:08;;;;;;;16.88;8.27;;;-3.30;96.40;;;;;;5061706;28;20040;-77
2022/03/04 03:59:33;;;;;;;14.30;7.20;;;-3.40;96.80;;;;;;5062008;28;20469;-77
2022/03/04 04:01:59;;;;;;;15.40;7.63;;;-3.40;96.70;;;;;;5069888;28;20043;-77
2022/03/04 04:04:25;;;;;;;18.77;8.75;;;-3.50;96.60;;;;;;5073943;28;20082;-78
2022/03/04 04:06:51;;;;;;;15.43;7.60;;;-3.50;96.80;;;;;;5076767;28;20086;-77
2022/03/04 04:09:17;;;;;;;15.68;8.48;;;-3.50;96.80;;;;;;5076578;28;20056;-77
2022/03/04 04:11:43;;;;;;;17.65;8.00;;;-3.60;96.90;;;;;;5076105;28;20107;-77
2022/03/04 04:14:09;;;;;;;17.10;8.10;;;-3.60;97.20;;;;;;5058370;28;20082;-77
2022/03/04 04:16:36;;;;;;;16.77;8.27;;;-3.60;97.50;;;;;;5058559;28;20510;-77
2022/03/04 04:19:03;;;;;;;19.35;7.85;;;-3.60;97.70;;;;;;5058334;28;20140;-77
2022/03/04 04:21:28;;;;;;;16.73;8.07;;;-3.70;97.80;;;;;;5057989;28;20032;-77
2022/03/04 04:23:55;;;;;;;18.23;8.52;;;-3.70;97.90;;;;;;5076339;28;20023;-77
2022/03/04 04:26:22;;;;;;;17.92;8.05;;;-3.70;97.60;;;;;;5058008;28;20043;-77
2022/03/04 04:28:48;;;;;;;17.23;8.13;;;-3.80;97.50;;;;;;5075812;28;20036;-77
2022/03/04 04:31:14;;;;;;;24.48;10.95;;;-3.80;97.50;;;;;;5075765;28;20040;-77
2022/03/04 04:33:40;;;;;;;32.90;15.50;;;-3.80;97.00;;;;;;5075935;28;20103;-77
2022/03/04 04:36:06;;;;;;;19.90;9.55;;;-3.90;96.50;;;;;;5057636;28;20060;-77
2022/03/04 04:38:32;;;;;;;23.55;9.95;;;-4.10;96.80;;;;;;5075801;28;20028;-77
2022/03/04 04:40:58;;;;;;;19.70;9.10;;;-4.20;98.00;;;;;;5075374;28;20473;-77
2022/03/04 04:43:23;;;;;;;18.70;8.57;;;-4.50;99.20;;;;;;5067982;28;20434;-77
2022/03/04 04:45:50;;;;;;;30.30;12.82;;;-4.60;99.90;;;;;;5075491;28;20044;-77
2022/03/04 04:48:16;;;;;;;54.13;22.35;;;-4.60;99.90;;;;;;5075378;28;20460;-77
2022/03/04 04:50:42;;;;;;;45.85;18.55;;;-4.60;99.90;;;;;;5057084;28;20377;-78
2022/03/04 04:53:08;;;;;;;24.58;12.13;;;-4.70;99.90;;;;;;5055842;28;20027;-78
2022/03/04 04:55:34;;;;;;;19.85;9.95;;;-4.60;99.90;;;;;;5075446;28;20076;-77
2022/03/04 04:58:00;;;;;;;17.95;8.90;;;-4.60;99.90;;;;;;5075275;28;20032;-77
2022/03/04 05:00:26;;;;;;;18.40;9.13;;;-4.60;99.90;;;;;;5074715;28;20039;-77
2022/03/04 05:02:52;;;;;;;19.52;8.32;;;-4.70;99.90;;;;;;5070953;28;20038;-77
2022/03/04 05:05:19;;;;;;;18.13;8.90;;;-4.60;99.90;;;;;;5075597;28;20596;-77
2022/03/04 05:07:46;;;;;;;18.42;8.45;;;-4.60;99.90;;;;;;5076349;28;20016;-77
2022/03/04 05:10:12;;;;;;;17.55;8.57;;;-4.60;99.90;;;;;;5083993;28;20113;-77
2022/03/04 05:12:38;;;;;;;17.27;8.52;;;-4.50;99.90;;;;;;5084320;28;20036;-78
2022/03/04 05:15:05;;;;;;;18.30;8.20;;;-4.50;99.90;;;;;;5076631;28;20384;-77
2022/03/04 05:17:31;;;;;;;26.23;10.10;;;-4.50;99.90;;;;;;5074334;28;20028;-77
2022/03/04 05:19:56;;;;;;;29.65;11.90;;;-4.40;99.90;;;;;;5074616;28;20044;-76
2022/03/04 05:22:22;;;;;;;30.27;10.45;;;-4.40;99.90;;;;;;5075542;28;20020;-77
2022/03/04 05:24:48;;;;;;;27.20;10.27;;;-4.30;99.90;;;;;;5072860;28;20017;-76
2022/03/04 05:27:13;;;;;;;17.92;8.40;;;-4.30;99.90;;;;;;5073285;28;20091;-76
2022/03/04 05:29:39;;;;;;;18.00;8.05;;;-4.30;99.90;;;;;;5073875;28;20032;-77
2022/03/04 05:32:06;;;;;;;19.02;8.68;;;-4.40;99.90;;;;;;5074218;28;20434;-76
2022/03/04 05:34:32;;;;;;;24.88;10.10;;;-4.40;99.90;;;;;;5075263;28;20028;-77
2022/03/04 05:36:57;;;;;;;23.75;10.15;;;-4.40;99.80;;;;;;5074787;28;20031;-77
2022/03/04 05:39:23;;;;;;;23.23;9.55;;;-4.40;99.80;;;;;;5074648;28;20021;-77
2022/03/04 05:41:49;;;;;;;22.17;8.63;;;-4.40;99.90;;;;;;5074479;28;20484;-77
2022/03/04 05:44:15;;;;;;;19.33;8.68;;;-4.50;99.80;;;;;;5075424;28;20021;-77
2022/03/04 05:46:41;;;;;;;18.33;9.05;;;-4.60;99.90;;;;;;5074497;28;20028;-77
2022/03/04 05:49:07;;;;;;;18.30;8.38;;;-4.70;99.90;;;;;;5074638;28;20074;-77
2022/03/04 05:51:34;;;;;;;14.18;7.78;;;-4.70;99.90;;;;;;5074343;28;20028;-77
2022/03/04 05:54:00;;;;;;;45.80;14.77;;;-4.70;99.90;;;;;;5074389;28;20020;-77
2022/03/04 05:56:26;;;;;;;84.20;26.40;;;-4.70;99.90;;;;;;5074068;28;20083;-76
2022/03/04 05:58:51;;;;;;;70.10;22.75;;;-4.70;99.90;;;;;;5074170;28;20032;-77
2022/03/04 06:01:17;;;;;;;70.05;25.50;;;-4.70;99.90;;;;;;5074186;28;20464;-77
2022/03/04 06:03:43;;;;;;;27.85;12.48;;;-4.80;99.90;;;;;;5074237;28;20426;-77
2022/03/04 06:06:13;;;;;;;28.50;11.68;;;-4.80;99.90;;;;;;5074389;28;20017;-77
2022/03/04 06:08:40;;;;;;;18.45;8.93;;;-4.90;99.90;;;;;;5074084;28;20021;-77
2022/03/04 06:11:10;;;;;;;20.05;9.27;;;-4.90;99.90;;;;;;5056199;28;20104;-77
2022/03/04 06:13:36;;;;;;;17.45;8.50;;;-4.90;99.90;;;;;;5074797;28;20041;-77
2022/03/04 06:16:03;;;;;;;18.83;9.32;;;-4.90;99.90;;;;;;5075534;28;20089;-77
2022/03/04 06:18:29;;;;;;;27.77;9.20;;;-4.90;99.90;;;;;;5074186;28;20025;-77
2022/03/04 06:20:54;;;;;;;25.23;12.75;;;-4.90;99.90;;;;;;5056028;28;20495;-77
2022/03/04 06:23:21;;;;;;;29.15;14.65;;;-4.90;99.90;;;;;;5073880;28;20031;-77
2022/03/04 06:25:47;;;;;;;27.50;15.38;;;-4.90;99.90;;;;;;5073913;28;20020;-77
2022/03/04 06:28:13;;;;;;;26.13;12.77;;;-4.90;99.90;;;;;;5073312;28;20047;-77
2022/03/04 06:30:38;;;;;;;27.67;14.48;;;-4.90;99.90;;;;;;5074119;28;20025;-77
2022/03/04 06:35:50;;;;;;;24.98;12.15;;;-4.80;99.90;;;;;;5073876;28;20079;-77
2022/03/04 06:38:17;;;;;;;26.95;11.80;;;-4.80;99.90;;;;;;5073619;28;20028;-77
2022/03/04 06:40:44;;;;;;;30.63;12.50;;;-4.80;99.90;;;;;;5074052;28;20067;-77
2022/03/04 06:43:10;;;;;;;57.13;22.20;;;-4.80;99.90;;;;;;5056875;28;20027;-77
2022/03/04 06:45:38;;;;;;;50.10;21.60;;;-4.80;99.90;;;;;;5055904;28;20024;-77
2022/03/04 06:48:04;;;;;;;40.63;17.73;;;-4.70;99.90;;;;;;5055532;28;20044;-77
2022/03/04 06:50:29;;;;;;;26.05;12.73;;;-4.70;99.90;;;;;;5074045;28;20029;-77
2022/03/04 06:52:55;;;;;;;30.45;11.70;;;-4.70;99.90;;;;;;5073713;28;20023;-77
2022/03/04 06:55:21;;;;;;;25.80;12.30;;;-4.70;99.90;;;;;;5073630;28;20029;-77
2022/03/04 06:57:51;;;;;;;24.05;10.75;;;-4.70;99.90;;;;;;5073479;28;20043;-77
2022/03/04 07:00:17;;;;;;;25.70;11.82;;;-4.80;99.90;;;;;;5073515;28;20024;-77
2022/03/04 07:02:43;;;;;;;23.27;10.98;;;-4.80;99.90;;;;;;5073442;28;20024;-77
2022/03/04 07:05:09;;;;;;;22.13;9.73;;;-4.80;99.90;;;;;;5073664;28;20020;-77
2022/03/04 07:07:35;;;;;;;27.38;10.35;;;-4.80;99.90;;;;;;5073516;28;20038;-77
2022/03/04 07:10:02;;;;;;;22.63;10.43;;;-4.70;99.90;;;;;;5073576;28;20024;-77
2022/03/04 07:12:28;;;;;;;22.17;11.18;;;-4.70;99.90;;;;;;5055542;28;20480;-77
2022/03/04 07:14:53;;;;;;;21.08;10.13;;;-4.70;99.90;;;;;;5055579;28;20028;-77
2022/03/04 07:17:19;;;;;;;29.80;10.77;;;-4.60;99.90;;;;;;5073470;28;20481;-77
2022/03/04 07:19:45;;;;;;;28.33;11.15;;;-4.50;99.90;;;;;;5073442;28;20055;-77
2022/03/04 07:22:10;;;;;;;23.05;10.95;;;-4.50;99.90;;;;;;5073787;28;20388;-77
2022/03/04 07:24:36;;;;;;;28.70;10.75;;;-4.50;99.90;;;;;;5073947;28;20457;-77
2022/03/04 07:27:03;;;;;;;22.77;11.38;;;-4.50;99.90;;;;;;5073326;28;20063;-77
2022/03/04 07:29:29;;;;;;;25.52;10.40;;;-4.50;99.90;;;;;;5073432;28;20036;-77
2022/03/04 07:31:55;;;;;;;22.77;11.02;;;-4.50;99.90;;;;;;5073499;28;20029;-77
2022/03/04 07:34:22;;;;;;;27.13;10.75;;;-4.50;99.90;;;;;;5073371;28;20024;-77
2022/03/04 07:36:47;;;;;;;37.65;16.38;;;-4.40;99.90;;;;;;5073320;28;20058;-77
2022/03/04 07:39:13;;;;;;;32.03;15.95;;;-4.40;99.90;;;;;;5056339;28;20021;-77
2022/03/04 07:41:40;;;;;;;29.98;12.77;;;-4.30;99.90;;;;;;5077381;28;20051;-77
2022/03/04 07:44:06;;;;;;;26.98;10.98;;;-4.20;99.90;;;;;;5077692;28;20460;-77
2022/03/04 07:46:32;;;;;;;21.08;10.95;;;-4.10;99.90;;;;;;5058814;28;20578;-77
2022/03/04 07:48:58;;;;;;;24.45;11.65;;;-4.10;99.90;;;;;;5076965;28;20078;-77
2022/03/04 07:51:23;;;;;;;30.73;11.27;;;-4.10;99.90;;;;;;5076771;28;20032;-77
2022/03/04 07:53:49;;;;;;;32.72;12.20;;;-4.10;99.90;;;;;;5076951;28;20029;-77
2022/03/04 07:56:15;;;;;;;28.48;11.32;;;-4.10;99.90;;;;;;5076738;28;20071;-77
2022/03/04 07:58:41;;;;;;;28.52;12.82;;;-4.00;99.90;;;;;;5076820;28;20024;-77
2022/03/04 08:01:08;;;;;;;37.75;13.35;;;-4.00;99.90;;;;;;5076817;28;20021;-77
2022/03/04 08:03:34;;;;;;;35.42;13.65;;;-4.00;99.90;;;;;;5077082;28;20077;-77
2022/03/04 08:06:00;;;;;;;33.42;14.63;;;-4.00;99.90;;;;;;5076502;28;20074;-77
2022/03/04 08:08:26;;;;;;;28.88;13.73;;;-4.00;99.90;;;;;;5076275;28;20033;-77
2022/03/04 08:10:53;;;;;;;27.63;12.63;;;-3.90;99.90;;;;;;5076874;28;20118;-77
2022/03/04 08:13:19;;;;;;;34.00;14.05;;;-3.90;99.90;;;;;;5076496;28;20012;-77
2022/03/04 08:15:45;;;;;;;32.97;13.68;;;-3.80;99.90;;;;;;5076713;28;20071;-77
2022/03/04 08:18:11;;;;;;;32.65;14.00;;;-3.70;99.90;;;;;;5076790;28;20028;-77
2022/03/04 08:20:38;;;;;;;31.25;13.52;;;-3.60;99.90;;;;;;5076691;28;20027;-77
2022/03/04 08:23:04;;;;;;;35.03;15.55;;;-3.40;99.90;;;;;;5077287;28;20016;-77
2022/03/04 08:25:30;;;;;;;32.25;14.82;;;-3.40;99.90;;;;;;5076392;28;20024;-77
2022/03/04 08:27:55;;;;;;;37.90;15.55;;;-3.30;99.90;;;;;;5076204;28;20095;-77
2022/03/04 08:30:21;;;;;;;32.28;14.63;;;-3.20;99.90;;;;;;5076454;28;20024;-77
2022/03/04 08:32:47;;;;;;;37.30;15.48;;;-3.10;99.90;;;;;;5058183;28;20025;-77
2022/03/04 08:35:13;;;;;;;39.40;18.88;;;-3.00;99.90;;;;;;5076758;28;20099;-77
2022/03/04 08:37:39;;;;;;;37.33;17.48;;;-2.90;99.90;;;;;;5076915;28;20040;-77
2022/03/04 08:40:08;;;;;;;40.28;18.58;;;-2.80;99.90;;;;;;5076282;28;20039;-77
2022/03/04 08:42:34;;;;;;;37.65;16.92;;;-2.70;99.90;;;;;;5075857;28;20425;-77
2022/03/04 08:45:00;;;;;;;41.50;17.52;;;-2.50;99.90;;;;;;5076084;28;20029;-77
2022/03/04 08:47:26;;;;;;;41.90;17.13;;;-2.40;99.90;;;;;;5075597;28;20099;-77
2022/03/04 08:49:51;;;;;;;37.42;17.88;;;-2.30;99.90;;;;;;5076281;28;20021;-76
2022/03/04 08:52:17;;;;;;;37.55;17.42;;;-2.20;99.90;;;;;;5075533;28;20033;-75
2022/03/04 08:54:43;;;;;;;42.08;18.35;;;-2.10;99.90;;;;;;5057727;28;20035;-75
2022/03/04 08:57:09;;;;;;;42.60;18.55;;;-1.90;99.90;;;;;;5075163;28;20031;-75
2022/03/04 08:59:35;;;;;;;37.50;16.33;;;-1.80;99.90;;;;;;5075336;28;20024;-75
2022/03/04 09:02:01;;;;;;;37.35;16.20;;;-1.70;99.70;;;;;;5075295;28;20059;-75
2022/03/04 09:04:27;;;;;;;36.08;16.85;;;-1.60;99.00;;;;;;5075265;28;20388;-75
2022/03/04 09:06:52;;;;;;;36.90;17.42;;;-1.50;98.90;;;;;;5075404;28;20025;-76
2022/03/04 09:09:18;;;;;;;30.85;15.48;;;-1.40;99.00;;;;;;5075106;28;20020;-76
2022/03/04 09:11:44;;;;;;;30.02;15.27;;;-1.30;98.40;;;;;;5075056;28;20373;-76
2022/03/04 09:14:10;;;;;;;31.75;14.95;;;-1.20;98.00;;;;;;5074994;28;20031;-75
2022/03/04 09:16:36;;;;;;;33.75;16.50;;;-1.10;97.30;;;;;;5075142;28;20028;-75
2022/03/04 09:19:03;;;;;;;32.35;15.07;;;-1.00;97.10;;;;;;5075004;28;20032;-75
2022/03/04 09:21:29;;;;;;;34.97;15.95;;;-0.90;96.80;;;;;;5075380;28;20481;-75
2022/03/04 09:23:55;;;;;;;30.77;15.98;;;-0.80;96.60;;;;;;5056804;28;20465;-75
2022/03/04 09:26:20;;;;;;;34.38;17.25;;;-0.70;96.70;;;;;;5075052;28;20025;-76
2022/03/04 09:28:47;;;;;;;39.67;17.60;;;-0.60;96.90;;;;;;5074614;28;20028;-75
2022/03/04 09:31:13;;;;;;;30.83;16.05;;;-0.50;96.90;;;;;;5074986;28;20484;-76
2022/03/04 09:33:39;;;;;;;34.53;16.17;;;-0.40;96.80;;;;;;5075168;28;20024;-76
2022/03/04 09:36:06;;;;;;;36.60;16.42;;;-0.30;96.50;;;;;;5056728;28;20408;-76
2022/03/04 09:38:31;;;;;;;34.40;16.58;;;-0.10;95.50;;;;;;5074489;28;20472;-75
2022/03/04 09:40:59;;;;;;;38.95;16.67;;;0.00;94.80;;;;;;5074432;28;20032;-75
2022/03/04 09:43:24;;;;;;;32.72;16.70;;;0.10;94.70;;;;;;5074698;28;20032;-76
2022/03/04 09:45:50;;;;;;;34.08;14.90;;;0.10;94.40;;;;;;5074395;28;20154;-76
2022/03/04 09:48:17;;;;;;;27.52;13.05;;;0.10;92.70;;;;;;5074290;28;20460;-76
2022/03/04 09:50:45;;;;;;;32.45;14.10;;;0.20;91.20;;;;;;5056318;28;20020;-76
2022/03/04 09:53:12;;;;;;;34.38;14.88;;;0.30;91.60;;;;;;5074202;28;20020;-76
2022/03/04 09:55:40;;;;;;;42.70;15.15;;;0.40;91.60;;;;;;5074198;28;20025;-76
2022/03/04 09:58:09;;;;;;;36.92;14.55;;;0.40;91.70;;;;;;5073948;28;20028;-76
2022/03/04 10:00:35;;;;;;;29.15;13.85;;;0.60;91.80;;;;;;5074638;28;20044;-75
2022/03/04 10:03:01;;;;;;;34.60;15.05;;;0.70;91.70;;;;;;5073736;28;20052;-76
2022/03/04 10:05:27;;;;;;;29.67;14.80;;;0.80;92.30;;;;;;5074052;28;20024;-76
2022/03/04 10:07:52;;;;;;;26.60;13.88;;;0.90;92.20;;;;;;5073987;28;20020;-76
2022/03/04 10:10:22;;;;;;;35.28;14.35;;;1.00;91.10;;;;;;5074476;28;20479;-76
2022/03/04 10:12:57;;;;;;;30.67;12.80;;;1.10;91.00;;;;;;5055995;28;20033;-76
2022/03/04 10:15:26;;;;;;;28.92;12.23;;;1.20;90.10;;;;;;5074136;28;20052;-76
2022/03/04 10:18:03;;;;;;;23.00;11.40;;;1.30;90.50;;;;;;5074013;28;20058;-76
2022/03/04 10:20:35;;;;;;;22.52;10.23;;;1.40;87.30;;;;;;5074343;28;20047;-76
2022/03/04 10:23:22;;;;;;;21.92;11.05;;;1.50;85.80;;;;;;5073912;28;20392;-77
2022/03/04 10:25:53;;;;;;;24.20;10.98;;;1.60;82.70;;;;;;5073984;28;20024;-76
2022/03/04 10:28:23;;;;;;;20.55;9.88;;;1.80;83.80;;;;;;5074195;28;20040;-76
2022/03/04 10:30:50;;;;;;;23.48;10.25;;;1.90;81.40;;;;;;5073958;28;20486;-76
2022/03/04 10:33:19;;;;;;;18.73;9.85;;;2.00;79.80;;;;;;5073636;28;20025;-76
2022/03/04 10:35:50;;;;;;;24.27;10.73;;;2.10;77.80;;;;;;5073749;28;20476;-76
2022/03/04 10:38:24;;;;;;;20.02;9.82;;;2.20;78.90;;;;;;5073623;28;20020;-76
2022/03/04 10:40:50;;;;;;;20.27;10.13;;;2.30;77.40;;;;;;5073382;28;20032;-76
2022/03/04 10:43:23;;;;;;;20.23;10.25;;;2.50;77.00;;;;;;5055501;28;20032;-76
2022/03/04 10:46:00;;;;;;;19.10;9.90;;;2.60;76.70;;;;;;5073752;28;20145;-76
2022/03/04 10:48:27;;;;;;;20.27;10.52;;;2.60;75.00;;;;;;5073514;28;20108;-76
2022/03/04 10:50:58;;;;;;;18.67;10.10;;;2.70;73.60;;;;;;5073442;28;20096;-76
2022/03/04 10:53:32;;;;;;;21.73;10.38;;;2.80;74.00;;;;;;5073770;28;20112;-76
2022/03/04 10:56:04;;;;;;;18.17;9.30;;;2.90;71.20;;;;;;5073416;28;20027;-76
2022/03/04 10:58:35;;;;;;;20.35;10.50;;;3.00;69.50;;;;;;5055297;28;20025;-76
2022/03/04 11:01:16;;;;;;;22.27;10.65;;;3.10;71.40;;;;;;5055327;28;20027;-76
2022/03/04 11:03:42;;;;;;;19.30;10.40;;;3.20;69.00;;;;;;5073678;28;20481;-76
2022/03/04 11:06:16;;;;;;;19.30;10.68;;;3.20;67.30;;;;;;5073334;28;20046;-76
2022/03/04 11:08:43;;;;;;;18.50;10.13;;;3.30;68.80;;;;;;5073038;28;20035;-76
2022/03/04 11:11:09;;;;;;;21.73;9.82;;;3.40;69.40;;;;;;5073498;28;20036;-76
2022/03/04 11:13:36;;;;;;;20.40;9.40;;;3.50;69.20;;;;;;5075050;28;20033;-76
2022/03/04 11:16:04;;;;;;;18.55;9.88;;;3.60;67.20;;;;;;5077732;28;20024;-76
2022/03/04 11:18:29;;;;;;;21.50;11.02;;;3.70;66.60;;;;;;5077114;28;20111;-76
2022/03/04 11:21:04;;;;;;;19.58;9.32;;;3.80;66.20;;;;;;5077031;28;20060;-76
2022/03/04 11:23:37;;;;;;;19.42;9.20;;;4.00;62.90;;;;;;5077700;28;20078;-76
2022/03/04 11:26:18;;;;;;;20.27;9.38;;;4.10;63.10;;;;;;5077132;28;20028;-76
2022/03/04 11:28:49;;;;;;;16.80;8.88;;;4.20;59.50;;;;;;5058982;28;20039;-76
2022/03/04 11:31:20;;;;;;;22.10;9.93;;;4.20;59.50;;;;;;5077194;28;20147;-76
2022/03/04 11:33:51;;;;;;;18.00;9.80;;;4.20;61.00;;;;;;5077500;28;20539;-76
2022/03/04 11:36:22;;;;;;;20.05;10.05;;;4.30;61.10;;;;;;5076946;28;20410;-76
2022/03/04 11:38:48;;;;;;;17.60;9.60;;;4.30;61.50;;;;;;5077169;28;20025;-76
2022/03/04 11:41:18;;;;;;;22.83;10.38;;;4.40;59.10;;;;;;5076908;28;20476;-76
2022/03/04 11:43:44;;;;;;;22.75;10.00;;;4.40;57.60;;;;;;5076762;28;20017;-76
2022/03/04 11:46:18;;;;;;;20.35;9.82;;;4.40;60.10;;;;;;5076628;28;20025;-76
2022/03/04 11:48:44;;;;;;;18.02;8.98;;;4.50;59.20;;;;;;5076580;28;20025;-76
2022/03/04 11:51:22;;;;;;;21.85;9.75;;;4.60;59.30;;;;;;5076842;28;20369;-76
2022/03/04 11:54:23;;;;;;;16.77;9.52;;;4.60;58.20;;;;;;5076776;28;20103;-76
2022/03/04 11:56:51;;;;;;;18.35;9.95;;;4.70;57.70;;;;;;5059317;28;20032;-77
2022/03/04 11:59:21;;;;;;;15.93;8.85;;;4.80;56.50;;;;;;5076494;28;20020;-76
2022/03/04 12:01:48;;;;;;;17.55;8.10;;;4.80;54.40;;;;;;5058539;28;20060;-76
2022/03/04 12:04:18;;;;;;;14.98;7.05;;;4.80;52.20;;;;;;5076688;28;20021;-77
2022/03/04 12:07:07;;;;;;;13.02;7.05;;;4.80;52.10;;;;;;5076300;28;20016;-77
2022/03/04 12:09:33;;;;;;;16.08;7.55;;;4.80;50.70;;;;;;5058321;28;20118;-77
2022/03/04 12:12:19;;;;;;;13.82;7.60;;;4.90;52.50;;;;;;5076266;28;20024;-76
2022/03/04 12:14:49;;;;;;;14.63;7.43;;;5.00;53.30;;;;;;5076223;28;20024;-76
2022/03/04 12:17:16;;;;;;;10.65;5.10;;;5.00;52.00;;;;;;5076225;28;20031;-76
2022/03/04 12:19:44;;;;;;;14.40;7.18;;;5.00;50.80;;;;;;5058024;28;20032;-76
2022/03/04 12:22:14;;;;;;;13.13;6.65;;;4.80;50.20;;;;;;5076225;28;20025;-76
2022/03/04 12:24:57;;;;;;;13.38;6.15;;;4.90;50.30;;;;;;5074431;28;20091;-76
2022/03/04 12:27:54;;;;;;;12.40;6.70;;;4.90;50.20;;;;;;5076166;28;20036;-77
2022/03/04 12:30:21;;;;;;;16.33;6.18;;;5.00;49.90;;;;;;5038015;28;20159;-77
2022/03/04 12:32:52;;;;;;;13.07;6.22;;;5.10;51.50;;;;;;5076409;28;20024;-77
2022/03/04 12:35:19;;;;;;;9.93;5.22;;;5.20;50.20;;;;;;5076249;28;20369;-77
2022/03/04 12:37:45;;;;;;;12.10;5.80;;;5.30;48.50;;;;;;5076132;28;20028;-77